createdAt,value
2023-03-06T00:01:04.426Z,2.60
2023-03-06T00:03:33.723Z,2.35
2023-03-06T00:06:02.145Z,2.57
2023-03-06T00:08:30.628Z,2.50
2023-03-06T00:10:58.427Z,2.58
2023-03-06T00:13:30.034Z,2.90
2023-03-06T00:16:01.145Z,2.70
2023-03-06T00:18:28.942Z,2.60
2023-03-06T00:20:56.537Z,2.30
2023-03-06T00:23:24.370Z,2.17
2023-03-06T00:25:51.885Z,2.25
2023-03-06T00:28:19.510Z,2.00
2023-03-06T00:30:48.570Z,2.20
2023-03-06T00:33:16.313Z,2.20
2023-03-06T00:35:43.936Z,2.50
2023-03-06T00:38:13.320Z,2.20
2023-03-06T00:40:40.831Z,2.58
2023-03-06T00:43:08.393Z,2.50
2023-03-06T00:45:36.485Z,2.50
2023-03-06T00:48:04.483Z,2.42
2023-03-06T00:50:32.089Z,2.35
2023-03-06T00:53:00.573Z,2.42
2023-03-06T00:55:29.569Z,2.80
2023-03-06T00:57:57.213Z,2.70
2023-03-06T01:00:25.117Z,2.85
2023-03-06T01:02:53.771Z,3.10
2023-03-06T01:05:23.064Z,2.90
2023-03-06T01:07:50.720Z,3.30
2023-03-06T01:10:18.512Z,3.15
2023-03-06T01:12:48.781Z,3.15
2023-03-06T01:15:16.437Z,2.95
2023-03-06T01:17:44.104Z,2.58
2023-03-06T01:20:15.744Z,2.83
2023-03-06T01:22:43.362Z,3.03
2023-03-06T01:25:11.788Z,3.13
2023-03-06T01:27:39.788Z,3.28
2023-03-06T01:30:08.498Z,3.28
2023-03-06T01:32:36.074Z,3.20
2023-03-06T01:35:04.046Z,3.40
2023-03-06T01:37:31.656Z,3.28
2023-03-06T01:39:59.184Z,2.97
2023-03-06T01:42:26.862Z,3.50
2023-03-06T01:45:01.802Z,3.53
2023-03-06T01:47:29.479Z,3.35
2023-03-06T01:50:00.736Z,3.40
2023-03-06T01:52:36.281Z,3.20
2023-03-06T01:55:10.016Z,3.10
2023-03-06T01:58:00.062Z,2.73
2023-03-06T02:00:29.247Z,3.03
2023-03-06T02:03:18.529Z,2.97
2023-03-06T02:05:46.682Z,2.90
2023-03-06T02:08:18.550Z,2.47
2023-03-06T02:11:06.019Z,2.67
2023-03-06T02:13:35.096Z,2.50
2023-03-06T02:16:02.917Z,2.70
2023-03-06T02:18:30.644Z,2.50
2023-03-06T02:21:02.424Z,2.65
2023-03-06T02:23:56.232Z,2.70
2023-03-06T02:26:26.184Z,2.30
2023-03-06T02:28:57.441Z,2.58
2023-03-06T02:31:31.205Z,2.70
2023-03-06T02:34:08.664Z,2.45
2023-03-06T02:36:42.002Z,2.10
2023-03-06T02:39:10.301Z,1.30
2023-03-06T02:41:38.868Z,0.70
2023-03-06T02:44:07.759Z,0.57
2023-03-06T02:46:36.171Z,0.60
2023-03-06T02:49:03.888Z,0.50
2023-03-06T02:51:32.098Z,0.40
2023-03-06T02:53:59.755Z,0.30
2023-03-06T02:56:27.397Z,0.40
2023-03-06T02:58:55.093Z,0.20
2023-03-06T03:01:23.174Z,0.40
2023-03-06T03:03:50.923Z,0.35
2023-03-06T03:06:18.490Z,0.30
2023-03-06T03:08:46.056Z,0.30
2023-03-06T03:11:14.879Z,0.30
2023-03-06T03:13:45.289Z,0.27
2023-03-06T03:16:18.252Z,0.30
2023-03-06T03:18:48.136Z,0.30
2023-03-06T03:21:18.764Z,0.35
2023-03-06T03:23:48.048Z,0.13
2023-03-06T03:26:21.200Z,0.30
2023-03-06T03:29:06.179Z,0.10
2023-03-06T03:31:34.065Z,0.17
2023-03-06T03:34:02.855Z,0.30
2023-03-06T03:36:33.718Z,0.10
2023-03-06T03:39:01.366Z,0.10
2023-03-06T03:41:29.124Z,0.20
2023-03-06T03:43:56.935Z,0.10
2023-03-06T03:46:27.659Z,0.08
2023-03-06T03:48:57.278Z,0.20
2023-03-06T03:51:24.906Z,0.20
2023-03-06T03:53:56.849Z,0.10
2023-03-06T03:56:27.241Z,0.00
2023-03-06T03:59:03.529Z,0.20
2023-03-06T04:01:39.553Z,0.10
2023-03-06T04:04:07.901Z,0.00
2023-03-06T04:06:35.720Z,0.10
2023-03-06T04:09:05.743Z,0.10
2023-03-06T04:11:33.946Z,0.10
2023-03-06T04:14:02.063Z,0.10
2023-03-06T04:16:30.425Z,0.00
2023-03-06T04:18:58.634Z,0.20
2023-03-06T04:21:27.044Z,0.10
2023-03-06T04:23:55.005Z,0.00
2023-03-06T04:26:22.643Z,0.10
2023-03-06T04:28:50.233Z,0.00
2023-03-06T04:31:17.973Z,0.10
2023-03-06T04:33:45.582Z,0.00
2023-03-06T04:36:29.770Z,0.00
2023-03-06T04:39:01.569Z,0.05
2023-03-06T04:41:29.351Z,0.20
2023-03-06T04:43:56.966Z,0.00
2023-03-06T04:46:24.710Z,0.05
2023-03-06T04:48:52.238Z,0.00
2023-03-06T04:51:19.907Z,0.10
2023-03-06T04:53:47.403Z,0.00
2023-03-06T04:56:15.112Z,0.00
2023-03-06T04:58:43.882Z,0.00
2023-03-06T05:01:12.320Z,0.00
2023-03-06T05:03:39.880Z,0.15
2023-03-06T05:06:07.704Z,0.10
2023-03-06T05:08:35.361Z,0.00
2023-03-06T05:11:03.915Z,0.13
2023-03-06T05:13:31.499Z,0.10
2023-03-06T05:16:06.723Z,0.10
2023-03-06T05:18:34.981Z,0.13
2023-03-06T05:21:03.431Z,0.10
2023-03-06T05:23:33.826Z,0.10
2023-03-06T05:26:01.373Z,0.13
2023-03-06T05:28:28.846Z,0.25
2023-03-06T05:30:56.583Z,0.10
2023-03-06T05:33:24.081Z,0.10
2023-03-06T05:35:51.936Z,0.10
2023-03-06T05:38:19.577Z,0.10
2023-03-06T05:40:47.234Z,0.30
2023-03-06T05:43:14.904Z,0.20
2023-03-06T05:45:42.526Z,0.10
2023-03-06T05:48:12.567Z,0.20
2023-03-06T05:50:40.429Z,0.10
2023-03-06T05:53:07.991Z,0.10
2023-03-06T05:55:35.647Z,0.10
2023-03-06T05:58:03.225Z,0.10
2023-03-06T06:00:30.815Z,0.10
2023-03-06T06:03:01.838Z,0.15
2023-03-06T06:05:29.429Z,0.30
2023-03-06T06:07:56.979Z,0.10
2023-03-06T06:10:24.530Z,0.10
2023-03-06T06:12:52.054Z,0.15
2023-03-06T06:15:19.646Z,0.15
2023-03-06T06:17:47.164Z,0.10
2023-03-06T06:20:17.303Z,0.13
2023-03-06T06:22:44.995Z,0.08
2023-03-06T06:25:13.139Z,0.20
2023-03-06T06:27:40.732Z,0.40
2023-03-06T06:30:11.867Z,0.10
2023-03-06T06:32:39.607Z,0.27
2023-03-06T06:35:07.596Z,0.20
2023-03-06T06:37:35.668Z,0.20
2023-03-06T06:40:04.548Z,0.20
2023-03-06T06:42:38.901Z,0.40
2023-03-06T06:45:09.004Z,0.40
2023-03-06T06:47:41.439Z,0.30
2023-03-06T06:50:13.235Z,0.88
2023-03-06T06:52:41.194Z,0.50
2023-03-06T06:55:09.621Z,0.20
2023-03-06T06:57:37.181Z,0.13
2023-03-06T07:00:05.970Z,0.43
2023-03-06T07:02:33.861Z,0.20
2023-03-06T07:05:05.060Z,0.32
2023-03-06T07:07:38.133Z,0.28
2023-03-06T07:10:11.564Z,0.40
2023-03-06T07:12:39.095Z,0.20
2023-03-06T07:15:08.173Z,0.20
2023-03-06T07:17:35.818Z,0.30
2023-03-06T07:20:04.487Z,0.20
2023-03-06T07:22:44.744Z,0.33
2023-03-06T07:25:18.137Z,0.30
2023-03-06T07:27:52.821Z,0.13
2023-03-06T07:30:24.063Z,0.30
2023-03-06T07:32:59.043Z,0.35
2023-03-06T07:35:27.029Z,0.30
2023-03-06T07:37:54.637Z,0.40
2023-03-06T07:40:23.870Z,0.15
2023-03-06T07:43:09.096Z,0.40
2023-03-06T07:45:46.904Z,0.20
2023-03-06T07:48:15.086Z,0.33
2023-03-06T07:50:43.478Z,0.30
2023-03-06T07:53:11.652Z,0.30
2023-03-06T07:55:41.584Z,0.20
2023-03-06T07:58:09.110Z,0.30
2023-03-06T08:00:36.838Z,0.30
2023-03-06T08:03:04.485Z,0.10
2023-03-06T08:05:32.153Z,0.50
2023-03-06T08:07:59.760Z,0.30
2023-03-06T08:10:27.412Z,0.52
2023-03-06T08:12:55.114Z,0.40
2023-03-06T08:15:22.753Z,0.10
2023-03-06T08:17:51.310Z,0.15
2023-03-06T08:20:18.951Z,0.20
2023-03-06T08:22:46.553Z,0.10
2023-03-06T08:25:14.093Z,0.30
2023-03-06T08:27:41.714Z,0.25
2023-03-06T08:30:09.948Z,0.20
2023-03-06T08:32:38.942Z,0.30
2023-03-06T08:35:07.114Z,0.20
2023-03-06T08:37:34.798Z,0.27
2023-03-06T08:40:04.770Z,0.30
2023-03-06T08:42:32.750Z,0.20
2023-03-06T08:45:00.410Z,0.10
2023-03-06T08:47:28.015Z,0.20
2023-03-06T08:49:55.939Z,0.10
2023-03-06T08:52:23.501Z,0.30
2023-03-06T08:54:51.087Z,0.30
2023-03-06T08:57:18.770Z,0.13
2023-03-06T08:59:46.282Z,0.10
2023-03-06T09:02:15.368Z,0.40
2023-03-06T09:04:42.950Z,0.20
2023-03-06T09:07:10.612Z,0.20
2023-03-06T09:09:38.306Z,0.30
2023-03-06T09:12:05.987Z,0.20
2023-03-06T09:14:33.484Z,0.60
2023-03-06T09:17:01.059Z,0.30
2023-03-06T09:19:28.664Z,0.20
2023-03-06T09:21:57.913Z,0.20
2023-03-06T09:24:25.625Z,0.20
2023-03-06T09:26:53.319Z,0.60
2023-03-06T09:29:21.359Z,0.30
2023-03-06T09:31:49.462Z,0.80
2023-03-06T09:34:17.391Z,0.20
2023-03-06T09:36:56.891Z,0.25
2023-03-06T09:39:26.644Z,0.27
2023-03-06T09:41:55.462Z,0.10
2023-03-06T09:44:29.475Z,0.13
2023-03-06T09:47:34.632Z,0.10
2023-03-06T09:50:17.592Z,0.10
2023-03-06T09:53:15.425Z,0.10
2023-03-06T09:55:50.293Z,0.03
2023-03-06T09:58:22.285Z,0.00
2023-03-06T10:01:30.448Z,0.00
2023-03-06T10:04:06.863Z,0.10
2023-03-06T10:06:41.539Z,0.10
2023-03-06T10:09:18.941Z,0.10
2023-03-06T10:12:01.011Z,0.00
2023-03-06T10:14:32.009Z,0.43
2023-03-06T10:17:00.784Z,0.10
2023-03-06T10:19:37.681Z,0.00
2023-03-06T10:22:29.203Z,0.00
2023-03-06T10:25:08.661Z,0.00
2023-03-06T10:27:54.916Z,0.10
2023-03-06T10:30:46.490Z,0.10
2023-03-06T10:33:49.594Z,0.10
2023-03-06T10:36:18.807Z,0.10
2023-03-06T10:38:48.744Z,0.35
2023-03-06T10:41:22.891Z,0.20
2023-03-06T10:44:00.237Z,0.13
2023-03-06T10:46:31.450Z,0.00
2023-03-06T10:49:10.176Z,0.67
2023-03-06T10:51:38.248Z,0.20
2023-03-06T10:54:14.874Z,0.03
2023-03-06T10:56:44.552Z,0.10
2023-03-06T10:59:18.346Z,0.10
2023-03-06T11:01:51.728Z,0.20
2023-03-06T11:04:34.643Z,0.17
2023-03-06T11:07:14.659Z,0.35
2023-03-06T11:09:47.863Z,0.10
2023-03-06T11:12:33.950Z,0.20
2023-03-06T11:15:10.234Z,0.00
2023-03-06T11:17:47.818Z,0.45
2023-03-06T11:20:15.352Z,0.20
2023-03-06T11:22:49.290Z,0.60
2023-03-06T11:25:19.341Z,0.20
2023-03-06T11:27:56.128Z,0.37
2023-03-06T11:30:35.117Z,0.15
2023-03-06T11:33:14.295Z,0.40
2023-03-06T11:35:58.238Z,2.42
2023-03-06T11:38:47.447Z,0.38
2023-03-06T11:41:44.254Z,0.20
2023-03-06T11:44:34.713Z,0.20
2023-03-06T11:47:15.310Z,0.30
2023-03-06T11:49:52.644Z,0.30
2023-03-06T11:52:31.135Z,0.20
2023-03-06T11:54:59.012Z,0.10
2023-03-06T11:57:58.718Z,0.10
2023-03-06T12:01:06.366Z,0.10
2023-03-06T12:03:58.547Z,0.22
2023-03-06T12:06:53.834Z,0.10
2023-03-06T12:09:27.114Z,0.27
2023-03-06T12:12:19.464Z,0.43
2023-03-06T12:15:22.855Z,0.10
2023-03-06T12:18:24.329Z,0.20
2023-03-06T12:21:28.910Z,0.30
2023-03-06T12:24:05.318Z,0.20
2023-03-06T12:26:56.908Z,0.20
2023-03-06T12:30:01.635Z,0.10
2023-03-06T12:32:48.147Z,0.17
2023-03-06T12:35:34.416Z,0.30
2023-03-06T12:38:39.469Z,0.10
2023-03-06T12:41:07.048Z,0.20
2023-03-06T12:43:34.521Z,0.20
2023-03-06T12:46:17.711Z,0.20
2023-03-06T12:48:52.940Z,0.35
2023-03-06T12:51:21.981Z,0.30
2023-03-06T12:53:51.170Z,0.20
2023-03-06T12:56:19.697Z,0.25
2023-03-06T12:58:51.639Z,0.20
2023-03-06T13:01:32.832Z,0.40
2023-03-06T13:04:31.441Z,0.50
2023-03-06T13:07:17.676Z,0.17
2023-03-06T13:10:07.095Z,0.20
2023-03-06T13:12:40.716Z,0.28
2023-03-06T13:15:29.760Z,0.30
2023-03-06T13:17:57.636Z,0.40
2023-03-06T13:20:40.905Z,0.20
2023-03-06T13:23:27.263Z,0.20
2023-03-06T13:25:56.572Z,0.35
2023-03-06T13:28:50.944Z,0.20
2023-03-06T13:31:49.585Z,0.20
2023-03-06T13:34:41.045Z,0.10
2023-03-06T13:37:17.701Z,0.15
2023-03-06T13:40:00.129Z,0.10
2023-03-06T13:42:31.985Z,0.20
2023-03-06T13:45:05.685Z,0.10
2023-03-06T13:48:02.492Z,0.00
2023-03-06T13:50:36.937Z,0.20
2023-03-06T13:53:30.057Z,0.00
2023-03-06T13:56:06.717Z,0.00
2023-03-06T13:58:59.946Z,0.10
2023-03-06T14:01:36.753Z,0.10
2023-03-06T14:04:27.391Z,0.10
2023-03-06T14:07:05.497Z,0.03
2023-03-06T14:09:45.699Z,0.05
2023-03-06T14:12:24.846Z,0.10
2023-03-06T14:14:59.023Z,0.10
2023-03-06T14:17:38.588Z,0.00
2023-03-06T14:20:18.351Z,0.10
2023-03-06T14:22:46.075Z,0.10
2023-03-06T14:25:27.187Z,0.07
2023-03-06T14:27:56.450Z,0.10
2023-03-06T14:30:28.042Z,0.10
2023-03-06T14:32:56.291Z,0.60
2023-03-06T14:35:28.692Z,0.10
2023-03-06T14:38:02.829Z,0.00
2023-03-06T14:40:36.866Z,0.10
2023-03-06T14:43:12.980Z,0.40
2023-03-06T14:45:58.897Z,0.10
2023-03-06T14:48:38.720Z,0.10
2023-03-06T14:51:14.725Z,0.20
2023-03-06T14:53:44.932Z,0.10
2023-03-06T14:56:17.432Z,0.10
2023-03-06T14:58:51.047Z,0.77
2023-03-06T15:01:28.000Z,0.35
2023-03-06T15:03:59.666Z,0.10
2023-03-06T15:06:36.421Z,0.10
2023-03-06T15:09:20.516Z,0.10
2023-03-06T15:12:00.192Z,0.10
2023-03-06T15:14:42.363Z,0.10
2023-03-06T15:17:19.075Z,0.00
2023-03-06T15:19:48.735Z,0.10
2023-03-06T15:22:28.017Z,0.00
2023-03-06T15:25:16.060Z,0.25
2023-03-06T15:27:49.889Z,0.00
2023-03-06T15:30:28.779Z,0.00
2023-03-06T15:33:25.708Z,0.10
2023-03-06T15:36:04.785Z,0.13
2023-03-06T15:38:36.594Z,0.20
2023-03-06T15:41:07.085Z,0.17
2023-03-06T15:43:38.744Z,0.10
2023-03-06T15:46:07.863Z,0.60
2023-03-06T15:48:35.580Z,0.10
2023-03-06T15:51:03.821Z,0.00
2023-03-06T15:53:31.455Z,0.10
2023-03-06T15:55:59.656Z,0.00
2023-03-06T15:58:31.259Z,0.20
2023-03-06T16:00:58.903Z,0.00
2023-03-06T16:03:26.594Z,0.00
2023-03-06T16:05:54.186Z,0.05
2023-03-06T16:08:21.778Z,0.00
2023-03-06T16:10:51.951Z,0.05
2023-03-06T16:13:27.778Z,0.00
2023-03-06T16:15:55.936Z,0.10
2023-03-06T16:18:23.540Z,0.10
2023-03-06T16:20:51.384Z,0.10
2023-03-06T16:23:19.092Z,0.00
2023-03-06T16:25:49.347Z,0.20
2023-03-06T16:28:17.212Z,0.05
2023-03-06T16:30:45.636Z,0.10
2023-03-06T16:33:14.291Z,0.10
2023-03-06T16:35:44.573Z,0.00
2023-03-06T16:38:12.338Z,0.05
2023-03-06T16:40:41.590Z,0.17
2023-03-06T16:43:10.766Z,0.10
2023-03-06T16:45:40.612Z,0.00
2023-03-06T16:48:14.805Z,0.15
2023-03-06T16:50:42.512Z,0.05
2023-03-06T16:53:10.020Z,0.10
2023-03-06T16:55:37.817Z,0.30
2023-03-06T16:58:06.419Z,0.00
2023-03-06T17:00:34.106Z,0.17
2023-03-06T17:03:03.050Z,0.40
2023-03-06T17:05:33.735Z,0.20
2023-03-06T17:08:01.857Z,0.60
2023-03-06T17:10:29.841Z,0.20
2023-03-06T17:12:57.615Z,0.20
2023-03-06T17:15:26.004Z,0.10
2023-03-06T17:17:53.651Z,0.10
2023-03-06T17:20:21.388Z,0.30
2023-03-06T17:22:49.009Z,0.13
2023-03-06T17:25:16.645Z,0.13
2023-03-06T17:27:44.353Z,0.08
2023-03-06T17:30:12.624Z,0.10
2023-03-06T17:32:41.152Z,0.40
2023-03-06T17:35:09.720Z,0.10
2023-03-06T17:37:37.664Z,0.20
2023-03-06T17:40:08.733Z,0.10
2023-03-06T17:42:36.484Z,0.00
2023-03-06T17:45:04.988Z,0.28
2023-03-06T17:47:32.713Z,0.20
2023-03-06T17:50:00.261Z,0.20
2023-03-06T17:52:27.903Z,0.15
2023-03-06T17:54:55.529Z,0.20
2023-03-06T17:57:23.371Z,0.20
2023-03-06T17:59:53.090Z,0.20
2023-03-06T18:02:20.815Z,0.50
2023-03-06T18:04:48.410Z,0.10
2023-03-06T18:07:16.293Z,0.38
2023-03-06T18:09:44.241Z,0.30
2023-03-06T18:12:11.961Z,0.27
2023-03-06T18:14:39.520Z,0.40
2023-03-06T18:17:07.097Z,0.50
2023-03-06T18:19:34.645Z,0.20
2023-03-06T18:22:02.317Z,0.20
2023-03-06T18:24:29.923Z,0.33
2023-03-06T18:26:57.493Z,0.43
2023-03-06T18:29:25.076Z,0.28
2023-03-06T18:31:53.340Z,0.40
2023-03-06T18:34:21.017Z,0.43
2023-03-06T18:36:51.593Z,0.30
2023-03-06T18:39:21.514Z,0.43
2023-03-06T18:41:49.285Z,0.50
2023-03-06T18:44:17.604Z,0.50
2023-03-06T18:46:45.475Z,0.30
2023-03-06T18:49:14.211Z,0.40
2023-03-06T18:51:42.497Z,0.20
2023-03-06T18:54:11.513Z,0.50
2023-03-06T18:56:44.064Z,0.50
2023-03-06T18:59:18.552Z,0.40
2023-03-06T19:01:47.311Z,0.67
2023-03-06T19:04:15.048Z,0.43
2023-03-06T19:06:42.910Z,0.43
2023-03-06T19:09:11.430Z,1.98
2023-03-06T19:11:39.019Z,4.75
2023-03-06T19:14:06.858Z,2.03
2023-03-06T19:16:35.145Z,2.30
2023-03-06T19:19:02.756Z,5.72
2023-03-06T19:21:30.492Z,2.88
2023-03-06T19:23:58.464Z,2.47
2023-03-06T19:26:28.054Z,0.80
2023-03-06T19:28:55.906Z,0.50
2023-03-06T19:31:26.918Z,0.82
2023-03-06T19:33:56.872Z,0.55
2023-03-06T19:36:27.859Z,0.50
2023-03-06T19:39:00.724Z,0.70
2023-03-06T19:41:31.613Z,0.50
2023-03-06T19:44:02.475Z,0.50
2023-03-06T19:46:31.926Z,0.40
2023-03-06T19:49:02.047Z,0.40
2023-03-06T19:51:30.070Z,1.30
2023-03-06T19:53:58.382Z,0.50
2023-03-06T19:56:29.132Z,0.40
2023-03-06T19:58:57.108Z,0.38
2023-03-06T20:01:26.669Z,0.38
2023-03-06T20:03:59.087Z,0.67
2023-03-06T20:06:37.690Z,1.05
2023-03-06T20:09:08.778Z,1.13
2023-03-06T20:11:36.448Z,0.80
2023-03-06T20:14:06.071Z,1.30
2023-03-06T20:16:34.342Z,0.97
2023-03-06T20:19:02.863Z,1.33
2023-03-06T20:21:35.452Z,0.90
2023-03-06T20:24:04.071Z,0.60
2023-03-06T20:26:34.087Z,0.70
2023-03-06T20:29:01.777Z,1.07
2023-03-06T20:31:30.758Z,1.38
2023-03-06T20:33:59.513Z,4.43
2023-03-06T20:36:33.092Z,1.30
2023-03-06T20:39:02.589Z,0.85
2023-03-06T20:41:31.754Z,0.93
2023-03-06T20:44:00.891Z,0.60
2023-03-06T20:46:29.096Z,0.73
2023-03-06T20:48:58.211Z,0.47
2023-03-06T20:51:31.795Z,0.70
2023-03-06T20:54:01.218Z,0.80
2023-03-06T20:56:31.473Z,1.10
2023-03-06T20:58:59.365Z,0.70
2023-03-06T21:01:33.264Z,0.68
2023-03-06T21:04:01.824Z,0.45
2023-03-06T21:06:29.526Z,1.03
2023-03-06T21:08:58.465Z,1.27
2023-03-06T21:11:26.591Z,0.73
2023-03-06T21:13:55.014Z,1.80
2023-03-06T21:16:25.065Z,0.75
2023-03-06T21:18:55.497Z,0.50
2023-03-06T21:21:26.708Z,0.95
2023-03-06T21:23:54.518Z,0.70
2023-03-06T21:26:24.441Z,0.50
2023-03-06T21:28:52.222Z,0.63
2023-03-06T21:31:21.873Z,0.30
2023-03-06T21:33:50.387Z,0.20
2023-03-06T21:36:21.446Z,0.43
2023-03-06T21:38:50.516Z,0.30
2023-03-06T21:41:28.981Z,0.28
2023-03-06T21:43:58.659Z,0.27
2023-03-06T21:46:27.528Z,0.30
2023-03-06T21:48:56.548Z,0.20
2023-03-06T21:51:26.006Z,0.10
2023-03-06T21:53:54.595Z,0.20
2023-03-06T21:56:25.505Z,0.20
2023-03-06T21:58:53.290Z,0.20
2023-03-06T22:01:23.757Z,0.45
2023-03-06T22:03:52.001Z,0.20
2023-03-06T22:06:22.646Z,0.30
2023-03-06T22:08:50.649Z,0.30
2023-03-06T22:11:20.710Z,0.40
2023-03-06T22:13:49.044Z,0.30
2023-03-06T22:16:17.496Z,0.55
2023-03-06T22:18:47.417Z,0.20
2023-03-06T22:21:17.660Z,0.10
2023-03-06T22:23:50.422Z,0.17
2023-03-06T22:26:18.175Z,0.10
2023-03-06T22:28:46.048Z,0.15
2023-03-06T22:31:15.173Z,0.17
2023-03-06T22:33:43.257Z,0.30
2023-03-06T22:36:15.843Z,0.30
2023-03-06T22:38:45.007Z,0.20
2023-03-06T22:41:14.617Z,0.32
2023-03-06T22:43:42.996Z,0.20
2023-03-06T22:46:13.869Z,0.17
2023-03-06T22:48:41.682Z,0.10
2023-03-06T22:51:20.518Z,0.10
2023-03-06T22:53:48.946Z,0.20
2023-03-06T22:56:19.004Z,0.10
2023-03-06T22:58:47.363Z,0.53
2023-03-06T23:01:20.684Z,0.10
2023-03-06T23:03:50.717Z,0.30
2023-03-06T23:06:28.201Z,0.28
2023-03-06T23:09:21.834Z,0.20
2023-03-06T23:12:09.107Z,0.60
2023-03-06T23:14:55.218Z,0.20
2023-03-06T23:17:41.546Z,0.10
2023-03-06T23:20:27.964Z,0.10
2023-03-06T23:23:13.704Z,0.10
2023-03-06T23:25:41.709Z,0.00
2023-03-06T23:28:09.504Z,0.30
2023-03-06T23:30:39.205Z,0.00
2023-03-06T23:33:07.175Z,0.10
2023-03-06T23:35:39.180Z,0.00
2023-03-06T23:38:07.350Z,0.00
2023-03-06T23:40:36.234Z,0.10
2023-03-06T23:43:04.674Z,0.00
2023-03-06T23:45:32.561Z,0.10
2023-03-06T23:48:00.130Z,0.10
2023-03-06T23:50:27.676Z,0.00
2023-03-06T23:52:55.733Z,0.00
2023-03-06T23:55:23.250Z,0.10
2023-03-06T23:57:50.878Z,0.00
